sensor_id;sensor_type;location;lat;lon;timestamp;pressure;altitude;pressure_sealevel;temperature
19040;BMP180;9652;49.014;12.052;2022-12-18T00:01:23;99074.00;;;0.50
19040;BMP180;9652;49.014;12.052;2022-12-18T00:03:52;99083.00;;;0.50
19040;BMP180;9652;49.014;12.052;2022-12-18T00:06:20;99063.00;;;0.60
19040;BMP180;9652;49.014;12.052;2022-12-18T00:08:48;99066.00;;;0.60
19040;BMP180;9652;49.014;12.052;2022-12-18T00:11:19;99056.00;;;0.60
19040;BMP180;9652;49.014;12.052;2022-12-18T00:13:47;99054.00;;;0.60
19040;BMP180;9652;49.014;12.052;2022-12-18T00:16:18;99047.00;;;0.60
19040;BMP180;9652;49.014;12.052;2022-12-18T00:18:47;99056.00;;;0.60
19040;BMP180;9652;49.014;12.052;2022-12-18T00:21:15;99076.00;;;0.60
19040;BMP180;9652;49.014;12.052;2022-12-18T00:23:44;99073.00;;;0.60
19040;BMP180;9652;49.014;12.052;2022-12-18T00:26:14;99081.00;;;0.60
19040;BMP180;9652;49.014;12.052;2022-12-18T00:28:44;99043.00;;;0.60
19040;BMP180;9652;49.014;12.052;2022-12-18T00:31:15;99077.00;;;0.60
19040;BMP180;9652;49.014;12.052;2022-12-18T00:33:44;99080.00;;;0.60
19040;BMP180;9652;49.014;12.052;2022-12-18T00:36:16;99090.00;;;0.60
19040;BMP180;9652;49.014;12.052;2022-12-18T00:38:45;99092.00;;;0.60
19040;BMP180;9652;49.014;12.052;2022-12-18T00:41:15;99087.00;;;0.50
19040;BMP180;9652;49.014;12.052;2022-12-18T00:44:07;99074.00;;;0.50
19040;BMP180;9652;49.014;12.052;2022-12-18T00:46:33;99089.00;;;0.50
19040;BMP180;9652;49.014;12.052;2022-12-18T00:49:01;99101.00;;;0.50
19040;BMP180;9652;49.014;12.052;2022-12-18T00:51:28;99096.00;;;0.50
19040;BMP180;9652;49.014;12.052;2022-12-18T00:53:56;99089.00;;;0.50
19040;BMP180;9652;49.014;12.052;2022-12-18T00:56:24;99098.00;;;0.50
19040;BMP180;9652;49.014;12.052;2022-12-18T00:58:52;99090.00;;;0.50
19040;BMP180;9652;49.014;12.052;2022-12-18T01:01:21;99099.00;;;0.60
19040;BMP180;9652;49.014;12.052;2022-12-18T01:03:48;99102.00;;;0.60
19040;BMP180;9652;49.014;12.052;2022-12-18T01:06:17;99089.00;;;0.60
19040;BMP180;9652;49.014;12.052;2022-12-18T01:08:44;99086.00;;;0.60
19040;BMP180;9652;49.014;12.052;2022-12-18T01:11:15;99085.00;;;0.60
19040;BMP180;9652;49.014;12.052;2022-12-18T01:13:43;99063.00;;;0.60
19040;BMP180;9652;49.014;12.052;2022-12-18T01:16:12;99100.00;;;0.60
19040;BMP180;9652;49.014;12.052;2022-12-18T01:18:41;99107.00;;;0.70
19040;BMP180;9652;49.014;12.052;2022-12-18T01:21:12;99106.00;;;0.70
19040;BMP180;9652;49.014;12.052;2022-12-18T01:23:39;99095.00;;;0.70
19040;BMP180;9652;49.014;12.052;2022-12-18T01:26:08;99095.00;;;0.70
19040;BMP180;9652;49.014;12.052;2022-12-18T01:28:36;99094.00;;;0.80
19040;BMP180;9652;49.014;12.052;2022-12-18T01:31:17;99111.00;;;0.80
19040;BMP180;9652;49.014;12.052;2022-12-18T01:33:48;99099.00;;;0.80
19040;BMP180;9652;49.014;12.052;2022-12-18T01:36:18;99096.00;;;0.80
19040;BMP180;9652;49.014;12.052;2022-12-18T01:38:45;99101.00;;;0.80
19040;BMP180;9652;49.014;12.052;2022-12-18T01:41:15;99102.00;;;0.80
19040;BMP180;9652;49.014;12.052;2022-12-18T01:43:48;99106.00;;;0.90
19040;BMP180;9652;49.014;12.052;2022-12-18T01:46:16;99099.00;;;0.90
19040;BMP180;9652;49.014;12.052;2022-12-18T01:48:48;99109.00;;;0.90
19040;BMP180;9652;49.014;12.052;2022-12-18T01:51:17;99108.00;;;0.90
19040;BMP180;9652;49.014;12.052;2022-12-18T01:53:46;99130.00;;;0.90
19040;BMP180;9652;49.014;12.052;2022-12-18T01:56:16;99124.00;;;0.90
19040;BMP180;9652;49.014;12.052;2022-12-18T01:58:54;99128.00;;;0.90
19040;BMP180;9652;49.014;12.052;2022-12-18T02:01:23;99130.00;;;0.90
19040;BMP180;9652;49.014;12.052;2022-12-18T02:03:52;99129.00;;;0.90
19040;BMP180;9652;49.014;12.052;2022-12-18T02:06:27;99137.00;;;0.90
19040;BMP180;9652;49.014;12.052;2022-12-18T02:09:07;99133.00;;;0.90
19040;BMP180;9652;49.014;12.052;2022-12-18T02:11:46;99136.00;;;1.00
19040;BMP180;9652;49.014;12.052;2022-12-18T02:14:25;99143.00;;;0.90
19040;BMP180;9652;49.014;12.052;2022-12-18T02:17:03;99133.00;;;1.00
19040;BMP180;9652;49.014;12.052;2022-12-18T02:19:55;99131.00;;;1.00
19040;BMP180;9652;49.014;12.052;2022-12-18T02:22:41;99140.00;;;1.00
19040;BMP180;9652;49.014;12.052;2022-12-18T02:25:28;99129.00;;;1.00
19040;BMP180;9652;49.014;12.052;2022-12-18T02:28:04;99132.00;;;1.00
19040;BMP180;9652;49.014;12.052;2022-12-18T02:30:35;99131.00;;;1.10
19040;BMP180;9652;49.014;12.052;2022-12-18T02:33:07;99124.00;;;1.00
19040;BMP180;9652;49.014;12.052;2022-12-18T02:35:38;99115.00;;;1.10
19040;BMP180;9652;49.014;12.052;2022-12-18T02:38:07;99126.00;;;1.10
19040;BMP180;9652;49.014;12.052;2022-12-18T02:40:38;99123.00;;;1.00
19040;BMP180;9652;49.014;12.052;2022-12-18T02:43:10;99141.00;;;1.00
19040;BMP180;9652;49.014;12.052;2022-12-18T02:45:47;99139.00;;;1.00
19040;BMP180;9652;49.014;12.052;2022-12-18T02:48:17;99140.00;;;1.00
19040;BMP180;9652;49.014;12.052;2022-12-18T02:50:59;99132.00;;;1.00
19040;BMP180;9652;49.014;12.052;2022-12-18T02:53:36;99141.00;;;1.00
19040;BMP180;9652;49.014;12.052;2022-12-18T02:56:14;99141.00;;;1.00
19040;BMP180;9652;49.014;12.052;2022-12-18T02:58:56;99109.00;;;1.00
19040;BMP180;9652;49.014;12.052;2022-12-18T03:01:49;99148.00;;;0.90
19040;BMP180;9652;49.014;12.052;2022-12-18T03:04:26;99146.00;;;0.90
19040;BMP180;9652;49.014;12.052;2022-12-18T03:06:58;99147.00;;;0.90
19040;BMP180;9652;49.014;12.052;2022-12-18T03:09:33;99150.00;;;0.90
19040;BMP180;9652;49.014;12.052;2022-12-18T03:12:10;99129.00;;;0.90
19040;BMP180;9652;49.014;12.052;2022-12-18T03:15:03;99131.00;;;0.90
19040;BMP180;9652;49.014;12.052;2022-12-18T03:17:33;99094.00;;;0.90
19040;BMP180;9652;49.014;12.052;2022-12-18T03:20:07;99150.00;;;0.90
19040;BMP180;9652;49.014;12.052;2022-12-18T03:22:38;99134.00;;;0.90
19040;BMP180;9652;49.014;12.052;2022-12-18T03:25:09;99137.00;;;1.00
19040;BMP180;9652;49.014;12.052;2022-12-18T03:27:46;99145.00;;;0.90
19040;BMP180;9652;49.014;12.052;2022-12-18T03:30:17;99143.00;;;1.00
19040;BMP180;9652;49.014;12.052;2022-12-18T03:32:52;99147.00;;;0.90
19040;BMP180;9652;49.014;12.052;2022-12-18T03:35:28;99134.00;;;0.90
19040;BMP180;9652;49.014;12.052;2022-12-18T03:37:56;99130.00;;;1.00
19040;BMP180;9652;49.014;12.052;2022-12-18T03:40:35;99118.00;;;1.00
19040;BMP180;9652;49.014;12.052;2022-12-18T03:43:16;99130.00;;;1.00
19040;BMP180;9652;49.014;12.052;2022-12-18T03:45:53;99127.00;;;1.00
19040;BMP180;9652;49.014;12.052;2022-12-18T03:48:29;99134.00;;;1.00
19040;BMP180;9652;49.014;12.052;2022-12-18T03:51:10;99132.00;;;1.00
19040;BMP180;9652;49.014;12.052;2022-12-18T03:53:48;99109.00;;;0.90
19040;BMP180;9652;49.014;12.052;2022-12-18T03:56:23;99104.00;;;0.90
19040;BMP180;9652;49.014;12.052;2022-12-18T03:58:55;99113.00;;;0.90
19040;BMP180;9652;49.014;12.052;2022-12-18T04:01:34;99111.00;;;0.90
19040;BMP180;9652;49.014;12.052;2022-12-18T04:04:03;99105.00;;;0.90
19040;BMP180;9652;49.014;12.052;2022-12-18T04:06:35;99131.00;;;0.90
19040;BMP180;9652;49.014;12.052;2022-12-18T04:09:04;99149.00;;;0.90
19040;BMP180;9652;49.014;12.052;2022-12-18T04:11:36;99148.00;;;0.90
19040;BMP180;9652;49.014;12.052;2022-12-18T04:14:04;99109.00;;;0.90
19040;BMP180;9652;49.014;12.052;2022-12-18T04:16:33;99148.00;;;0.90
19040;BMP180;9652;49.014;12.052;2022-12-18T04:19:03;99147.00;;;0.90
19040;BMP180;9652;49.014;12.052;2022-12-18T04:21:37;99155.00;;;1.00
19040;BMP180;9652;49.014;12.052;2022-12-18T04:24:05;99160.00;;;1.00
19040;BMP180;9652;49.014;12.052;2022-12-18T04:26:35;99152.00;;;1.00
19040;BMP180;9652;49.014;12.052;2022-12-18T04:29:31;99153.00;;;1.00
19040;BMP180;9652;49.014;12.052;2022-12-18T04:32:00;99158.00;;;1.10
19040;BMP180;9652;49.014;12.052;2022-12-18T04:34:29;99149.00;;;1.00
19040;BMP180;9652;49.014;12.052;2022-12-18T04:36:57;99154.00;;;1.00
19040;BMP180;9652;49.014;12.052;2022-12-18T04:39:25;99162.00;;;1.10
19040;BMP180;9652;49.014;12.052;2022-12-18T04:41:55;99168.00;;;1.10
19040;BMP180;9652;49.014;12.052;2022-12-18T04:44:22;99158.00;;;1.10
19040;BMP180;9652;49.014;12.052;2022-12-18T04:46:49;99165.00;;;1.10
19040;BMP180;9652;49.014;12.052;2022-12-18T04:49:18;99170.00;;;1.10
19040;BMP180;9652;49.014;12.052;2022-12-18T04:51:45;99139.00;;;1.00
19040;BMP180;9652;49.014;12.052;2022-12-18T04:54:12;99170.00;;;1.00
19040;BMP180;9652;49.014;12.052;2022-12-18T04:56:39;99174.00;;;1.00
19040;BMP180;9652;49.014;12.052;2022-12-18T04:59:06;99174.00;;;1.00
19040;BMP180;9652;49.014;12.052;2022-12-18T05:01:33;99166.00;;;1.00
19040;BMP180;9652;49.014;12.052;2022-12-18T05:04:01;99171.00;;;1.00
19040;BMP180;9652;49.014;12.052;2022-12-18T05:06:29;99170.00;;;1.00
19040;BMP180;9652;49.014;12.052;2022-12-18T05:08:56;99170.00;;;1.00
19040;BMP180;9652;49.014;12.052;2022-12-18T05:11:23;99169.00;;;1.00
19040;BMP180;9652;49.014;12.052;2022-12-18T05:13:51;99173.00;;;1.00
19040;BMP180;9652;49.014;12.052;2022-12-18T05:16:18;99179.00;;;1.00
19040;BMP180;9652;49.014;12.052;2022-12-18T05:18:45;99178.00;;;1.00
19040;BMP180;9652;49.014;12.052;2022-12-18T05:21:12;99172.00;;;1.10
19040;BMP180;9652;49.014;12.052;2022-12-18T05:23:40;99188.00;;;1.10
19040;BMP180;9652;49.014;12.052;2022-12-18T05:26:08;99189.00;;;1.00
19040;BMP180;9652;49.014;12.052;2022-12-18T05:28:36;99178.00;;;1.10
19040;BMP180;9652;49.014;12.052;2022-12-18T05:31:04;99196.00;;;1.10
19040;BMP180;9652;49.014;12.052;2022-12-18T05:33:34;99196.00;;;1.10
19040;BMP180;9652;49.014;12.052;2022-12-18T05:36:04;99182.00;;;1.10
19040;BMP180;9652;49.014;12.052;2022-12-18T05:38:34;99182.00;;;1.10
19040;BMP180;9652;49.014;12.052;2022-12-18T05:41:03;99185.00;;;1.10
19040;BMP180;9652;49.014;12.052;2022-12-18T05:43:30;99203.00;;;1.10
19040;BMP180;9652;49.014;12.052;2022-12-18T05:45:58;99202.00;;;1.00
19040;BMP180;9652;49.014;12.052;2022-12-18T05:48:29;99199.00;;;1.00
19040;BMP180;9652;49.014;12.052;2022-12-18T05:51:05;99193.00;;;0.90
19040;BMP180;9652;49.014;12.052;2022-12-18T05:53:33;99208.00;;;0.90
19040;BMP180;9652;49.014;12.052;2022-12-18T05:56:03;99202.00;;;0.90
19040;BMP180;9652;49.014;12.052;2022-12-18T05:58:31;99216.00;;;0.90
19040;BMP180;9652;49.014;12.052;2022-12-18T06:01:08;99224.00;;;0.90
19040;BMP180;9652;49.014;12.052;2022-12-18T06:03:36;99214.00;;;0.90
19040;BMP180;9652;49.014;12.052;2022-12-18T06:06:04;99221.00;;;0.90
19040;BMP180;9652;49.014;12.052;2022-12-18T06:08:31;99219.00;;;0.80
19040;BMP180;9652;49.014;12.052;2022-12-18T06:10:58;99218.00;;;0.80
19040;BMP180;9652;49.014;12.052;2022-12-18T06:13:26;99231.00;;;0.70
19040;BMP180;9652;49.014;12.052;2022-12-18T06:15:53;99229.00;;;0.70
19040;BMP180;9652;49.014;12.052;2022-12-18T06:18:20;99227.00;;;0.70
19040;BMP180;9652;49.014;12.052;2022-12-18T06:20:55;99227.00;;;0.70
19040;BMP180;9652;49.014;12.052;2022-12-18T06:23:22;99234.00;;;0.60
19040;BMP180;9652;49.014;12.052;2022-12-18T06:25:50;99228.00;;;0.70
19040;BMP180;9652;49.014;12.052;2022-12-18T06:28:17;99238.00;;;0.70
19040;BMP180;9652;49.014;12.052;2022-12-18T06:30:47;99250.00;;;0.70
19040;BMP180;9652;49.014;12.052;2022-12-18T06:33:15;99233.00;;;0.60
19040;BMP180;9652;49.014;12.052;2022-12-18T06:35:43;99222.00;;;0.60
19040;BMP180;9652;49.014;12.052;2022-12-18T06:38:10;99235.00;;;0.60
19040;BMP180;9652;49.014;12.052;2022-12-18T06:40:37;99231.00;;;0.50
19040;BMP180;9652;49.014;12.052;2022-12-18T06:43:05;99223.00;;;0.60
19040;BMP180;9652;49.014;12.052;2022-12-18T06:45:33;99235.00;;;0.50
19040;BMP180;9652;49.014;12.052;2022-12-18T06:48:02;99233.00;;;0.50
19040;BMP180;9652;49.014;12.052;2022-12-18T06:50:29;99242.00;;;0.60
19040;BMP180;9652;49.014;12.052;2022-12-18T06:52:56;99252.00;;;0.60
19040;BMP180;9652;49.014;12.052;2022-12-18T06:55:23;99248.00;;;0.60
19040;BMP180;9652;49.014;12.052;2022-12-18T06:57:51;99246.00;;;0.60
19040;BMP180;9652;49.014;12.052;2022-12-18T07:00:18;99247.00;;;0.60
19040;BMP180;9652;49.014;12.052;2022-12-18T07:02:45;99264.00;;;0.60
19040;BMP180;9652;49.014;12.052;2022-12-18T07:05:14;99271.00;;;0.50
19040;BMP180;9652;49.014;12.052;2022-12-18T07:07:41;99273.00;;;0.50
19040;BMP180;9652;49.014;12.052;2022-12-18T07:10:09;99277.00;;;0.50
19040;BMP180;9652;49.014;12.052;2022-12-18T07:12:36;99267.00;;;0.50
19040;BMP180;9652;49.014;12.052;2022-12-18T07:15:05;99263.00;;;0.50
19040;BMP180;9652;49.014;12.052;2022-12-18T07:17:32;99265.00;;;0.50
19040;BMP180;9652;49.014;12.052;2022-12-18T07:19:59;99266.00;;;0.50
19040;BMP180;9652;49.014;12.052;2022-12-18T07:22:28;99271.00;;;0.50
19040;BMP180;9652;49.014;12.052;2022-12-18T07:24:55;99280.00;;;0.50
19040;BMP180;9652;49.014;12.052;2022-12-18T07:27:23;99281.00;;;0.50
19040;BMP180;9652;49.014;12.052;2022-12-18T07:29:50;99259.00;;;0.50
19040;BMP180;9652;49.014;12.052;2022-12-18T07:32:17;99258.00;;;0.50
19040;BMP180;9652;49.014;12.052;2022-12-18T07:34:44;99230.00;;;0.50
19040;BMP180;9652;49.014;12.052;2022-12-18T07:37:11;99247.00;;;0.50
19040;BMP180;9652;49.014;12.052;2022-12-18T07:39:40;99253.00;;;0.50
19040;BMP180;9652;49.014;12.052;2022-12-18T07:42:07;99237.00;;;0.50
19040;BMP180;9652;49.014;12.052;2022-12-18T07:44:51;99255.00;;;0.50
19040;BMP180;9652;49.014;12.052;2022-12-18T07:47:18;99259.00;;;0.50
19040;BMP180;9652;49.014;12.052;2022-12-18T07:49:45;99262.00;;;0.60
19040;BMP180;9652;49.014;12.052;2022-12-18T07:52:13;99265.00;;;0.60
19040;BMP180;9652;49.014;12.052;2022-12-18T07:54:41;99257.00;;;0.60
19040;BMP180;9652;49.014;12.052;2022-12-18T07:57:08;99229.00;;;0.70
19040;BMP180;9652;49.014;12.052;2022-12-18T07:59:36;99272.00;;;0.70
19040;BMP180;9652;49.014;12.052;2022-12-18T08:02:03;99243.00;;;0.70
19040;BMP180;9652;49.014;12.052;2022-12-18T08:04:30;99281.00;;;0.70
19040;BMP180;9652;49.014;12.052;2022-12-18T08:06:57;99264.00;;;0.80
19040;BMP180;9652;49.014;12.052;2022-12-18T08:09:24;99274.00;;;0.80
19040;BMP180;9652;49.014;12.052;2022-12-18T08:11:53;99237.00;;;0.80
19040;BMP180;9652;49.014;12.052;2022-12-18T08:14:20;99277.00;;;0.80
19040;BMP180;9652;49.014;12.052;2022-12-18T08:16:47;99293.00;;;0.80
19040;BMP180;9652;49.014;12.052;2022-12-18T08:19:14;99300.00;;;0.70
19040;BMP180;9652;49.014;12.052;2022-12-18T08:21:41;99279.00;;;0.80
19040;BMP180;9652;49.014;12.052;2022-12-18T08:24:09;99308.00;;;0.80
19040;BMP180;9652;49.014;12.052;2022-12-18T08:26:36;99292.00;;;0.80
19040;BMP180;9652;49.014;12.052;2022-12-18T08:29:05;99317.00;;;0.90
19040;BMP180;9652;49.014;12.052;2022-12-18T08:31:32;99320.00;;;0.90
19040;BMP180;9652;49.014;12.052;2022-12-18T08:34:00;99320.00;;;0.90
19040;BMP180;9652;49.014;12.052;2022-12-18T08:36:27;99313.00;;;1.00
19040;BMP180;9652;49.014;12.052;2022-12-18T08:38:56;99271.00;;;0.90
19040;BMP180;9652;49.014;12.052;2022-12-18T08:41:23;99320.00;;;1.00
19040;BMP180;9652;49.014;12.052;2022-12-18T08:43:51;99307.00;;;1.10
19040;BMP180;9652;49.014;12.052;2022-12-18T08:46:40;99325.00;;;1.10
19040;BMP180;9652;49.014;12.052;2022-12-18T08:49:09;99322.00;;;1.10
19040;BMP180;9652;49.014;12.052;2022-12-18T08:51:38;99316.00;;;1.10
19040;BMP180;9652;49.014;12.052;2022-12-18T08:54:06;99322.00;;;1.10
19040;BMP180;9652;49.014;12.052;2022-12-18T08:56:33;99317.00;;;1.10
19040;BMP180;9652;49.014;12.052;2022-12-18T08:59:01;99321.00;;;1.10
19040;BMP180;9652;49.014;12.052;2022-12-18T09:01:28;99326.00;;;1.10
19040;BMP180;9652;49.014;12.052;2022-12-18T09:03:57;99319.00;;;1.10
19040;BMP180;9652;49.014;12.052;2022-12-18T09:06:24;99315.00;;;1.20
19040;BMP180;9652;49.014;12.052;2022-12-18T09:08:52;99326.00;;;1.20
19040;BMP180;9652;49.014;12.052;2022-12-18T09:11:22;99320.00;;;1.20
19040;BMP180;9652;49.014;12.052;2022-12-18T09:13:50;99319.00;;;1.30
19040;BMP180;9652;49.014;12.052;2022-12-18T09:16:18;99326.00;;;1.30
19040;BMP180;9652;49.014;12.052;2022-12-18T09:18:45;99317.00;;;1.40
19040;BMP180;9652;49.014;12.052;2022-12-18T09:21:18;99322.00;;;1.40
19040;BMP180;9652;49.014;12.052;2022-12-18T09:23:50;99320.00;;;1.40
19040;BMP180;9652;49.014;12.052;2022-12-18T09:26:18;99323.00;;;1.50
19040;BMP180;9652;49.014;12.052;2022-12-18T09:28:45;99316.00;;;1.40
19040;BMP180;9652;49.014;12.052;2022-12-18T09:31:13;99322.00;;;1.20
19040;BMP180;9652;49.014;12.052;2022-12-18T09:33:41;99317.00;;;1.50
19040;BMP180;9652;49.014;12.052;2022-12-18T09:36:15;99310.00;;;1.50
19040;BMP180;9652;49.014;12.052;2022-12-18T09:38:42;99313.00;;;1.50
19040;BMP180;9652;49.014;12.052;2022-12-18T09:41:36;99310.00;;;1.50
19040;BMP180;9652;49.014;12.052;2022-12-18T09:44:19;99242.00;;;1.50
19040;BMP180;9652;49.014;12.052;2022-12-18T09:47:25;99314.00;;;1.60
19040;BMP180;9652;49.014;12.052;2022-12-18T09:50:01;99305.00;;;1.60
19040;BMP180;9652;49.014;12.052;2022-12-18T09:52:36;99311.00;;;1.60
19040;BMP180;9652;49.014;12.052;2022-12-18T09:55:16;99297.00;;;1.60
19040;BMP180;9652;49.014;12.052;2022-12-18T09:57:53;99300.00;;;1.60
19040;BMP180;9652;49.014;12.052;2022-12-18T10:00:24;99294.00;;;1.70
19040;BMP180;9652;49.014;12.052;2022-12-18T10:03:00;99283.00;;;1.70
19040;BMP180;9652;49.014;12.052;2022-12-18T10:05:37;99283.00;;;1.80
19040;BMP180;9652;49.014;12.052;2022-12-18T10:08:18;99290.00;;;1.80
19040;BMP180;9652;49.014;12.052;2022-12-18T10:10:52;99282.00;;;1.80
19040;BMP180;9652;49.014;12.052;2022-12-18T10:13:27;99281.00;;;1.90
19040;BMP180;9652;49.014;12.052;2022-12-18T10:16:16;99293.00;;;1.90
19040;BMP180;9652;49.014;12.052;2022-12-18T10:19:23;99284.00;;;1.90
19040;BMP180;9652;49.014;12.052;2022-12-18T10:22:02;99288.00;;;1.90
19040;BMP180;9652;49.014;12.052;2022-12-18T10:24:42;99299.00;;;1.90
19040;BMP180;9652;49.014;12.052;2022-12-18T10:27:16;99281.00;;;1.90
19040;BMP180;9652;49.014;12.052;2022-12-18T10:29:45;99278.00;;;2.00
19040;BMP180;9652;49.014;12.052;2022-12-18T10:32:16;99279.00;;;2.00
19040;BMP180;9652;49.014;12.052;2022-12-18T10:34:49;99282.00;;;2.00
19040;BMP180;9652;49.014;12.052;2022-12-18T10:37:20;99282.00;;;2.00
19040;BMP180;9652;49.014;12.052;2022-12-18T10:40:09;99276.00;;;2.00
19040;BMP180;9652;49.014;12.052;2022-12-18T10:42:37;99274.00;;;2.00
19040;BMP180;9652;49.014;12.052;2022-12-18T10:45:12;99263.00;;;2.00
19040;BMP180;9652;49.014;12.052;2022-12-18T10:47:44;99269.00;;;2.00
19040;BMP180;9652;49.014;12.052;2022-12-18T10:50:25;99263.00;;;2.00
19040;BMP180;9652;49.014;12.052;2022-12-18T10:52:57;99262.00;;;2.00
19040;BMP180;9652;49.014;12.052;2022-12-18T10:55:31;99254.00;;;2.00
19040;BMP180;9652;49.014;12.052;2022-12-18T10:58:18;99256.00;;;2.00
19040;BMP180;9652;49.014;12.052;2022-12-18T11:01:09;99227.00;;;2.00
19040;BMP180;9652;49.014;12.052;2022-12-18T11:03:40;99264.00;;;2.00
19040;BMP180;9652;49.014;12.052;2022-12-18T11:06:11;99262.00;;;2.00
19040;BMP180;9652;49.014;12.052;2022-12-18T11:08:40;99264.00;;;2.00
19040;BMP180;9652;49.014;12.052;2022-12-18T11:11:21;99273.00;;;2.00
19040;BMP180;9652;49.014;12.052;2022-12-18T11:14:02;99262.00;;;2.00
19040;BMP180;9652;49.014;12.052;2022-12-18T11:16:36;99279.00;;;2.00
19040;BMP180;9652;49.014;12.052;2022-12-18T11:19:26;99278.00;;;2.00
19040;BMP180;9652;49.014;12.052;2022-12-18T11:21:56;99274.00;;;2.10
19040;BMP180;9652;49.014;12.052;2022-12-18T11:24:30;99255.00;;;2.10
19040;BMP180;9652;49.014;12.052;2022-12-18T11:27:03;99277.00;;;2.00
19040;BMP180;9652;49.014;12.052;2022-12-18T11:29:36;99276.00;;;2.10
19040;BMP180;9652;49.014;12.052;2022-12-18T11:32:34;99272.00;;;2.10
19040;BMP180;9652;49.014;12.052;2022-12-18T11:35:14;99272.00;;;2.10
19040;BMP180;9652;49.014;12.052;2022-12-18T11:37:49;99273.00;;;2.10
19040;BMP180;9652;49.014;12.052;2022-12-18T11:40:22;99281.00;;;2.10
19040;BMP180;9652;49.014;12.052;2022-12-18T11:43:01;99256.00;;;2.00
19040;BMP180;9652;49.014;12.052;2022-12-18T11:45:34;99282.00;;;2.00
19040;BMP180;9652;49.014;12.052;2022-12-18T11:48:14;99273.00;;;2.10
19040;BMP180;9652;49.014;12.052;2022-12-18T11:50:50;99264.00;;;2.10
19040;BMP180;9652;49.014;12.052;2022-12-18T11:53:18;99268.00;;;2.20
19040;BMP180;9652;49.014;12.052;2022-12-18T11:56:00;99253.00;;;2.30
19040;BMP180;9652;49.014;12.052;2022-12-18T11:58:46;99247.00;;;2.30
19040;BMP180;9652;49.014;12.052;2022-12-18T12:01:30;99268.00;;;2.30
19040;BMP180;9652;49.014;12.052;2022-12-18T12:04:41;99267.00;;;2.30
19040;BMP180;9652;49.014;12.052;2022-12-18T12:07:33;99267.00;;;2.30
19040;BMP180;9652;49.014;12.052;2022-12-18T12:10:17;99258.00;;;2.40
19040;BMP180;9652;49.014;12.052;2022-12-18T12:13:07;99253.00;;;2.40
19040;BMP180;9652;49.014;12.052;2022-12-18T12:15:52;99245.00;;;2.30
19040;BMP180;9652;49.014;12.052;2022-12-18T12:18:36;99238.00;;;2.30
19040;BMP180;9652;49.014;12.052;2022-12-18T12:21:14;99230.00;;;2.30
19040;BMP180;9652;49.014;12.052;2022-12-18T12:23:52;99214.00;;;2.30
19040;BMP180;9652;49.014;12.052;2022-12-18T12:26:29;99227.00;;;2.30
19040;BMP180;9652;49.014;12.052;2022-12-18T12:29:13;99231.00;;;2.40
19040;BMP180;9652;49.014;12.052;2022-12-18T12:32:01;99224.00;;;2.40
19040;BMP180;9652;49.014;12.052;2022-12-18T12:34:39;99220.00;;;2.40
19040;BMP180;9652;49.014;12.052;2022-12-18T12:37:25;99209.00;;;2.50
19040;BMP180;9652;49.014;12.052;2022-12-18T12:39:55;99201.00;;;2.40
19040;BMP180;9652;49.014;12.052;2022-12-18T12:42:32;99227.00;;;2.40
19040;BMP180;9652;49.014;12.052;2022-12-18T12:45:27;99224.00;;;2.40
19040;BMP180;9652;49.014;12.052;2022-12-18T12:47:58;99217.00;;;2.30
19040;BMP180;9652;49.014;12.052;2022-12-18T12:50:26;99221.00;;;2.40
19040;BMP180;9652;49.014;12.052;2022-12-18T12:52:56;99216.00;;;2.40
19040;BMP180;9652;49.014;12.052;2022-12-18T12:55:27;99217.00;;;2.40
19040;BMP180;9652;49.014;12.052;2022-12-18T12:58:05;99197.00;;;2.40
19040;BMP180;9652;49.014;12.052;2022-12-18T13:00:43;99194.00;;;2.40
19040;BMP180;9652;49.014;12.052;2022-12-18T13:03:24;99223.00;;;2.40
19040;BMP180;9652;49.014;12.052;2022-12-18T13:06:00;99217.00;;;2.50
19040;BMP180;9652;49.014;12.052;2022-12-18T13:08:32;99218.00;;;2.50
19040;BMP180;9652;49.014;12.052;2022-12-18T13:11:35;99213.00;;;2.40
19040;BMP180;9652;49.014;12.052;2022-12-18T13:14:26;99232.00;;;2.40
19040;BMP180;9652;49.014;12.052;2022-12-18T13:17:16;99215.00;;;2.40
19040;BMP180;9652;49.014;12.052;2022-12-18T13:19:50;99213.00;;;2.40
19040;BMP180;9652;49.014;12.052;2022-12-18T13:22:23;99226.00;;;2.30
19040;BMP180;9652;49.014;12.052;2022-12-18T13:24:51;99218.00;;;2.30
19040;BMP180;9652;49.014;12.052;2022-12-18T13:27:55;99218.00;;;2.30
19040;BMP180;9652;49.014;12.052;2022-12-18T13:30:52;99219.00;;;2.30
19040;BMP180;9652;49.014;12.052;2022-12-18T13:33:42;99183.00;;;2.20
19040;BMP180;9652;49.014;12.052;2022-12-18T13:36:26;99225.00;;;2.20
19040;BMP180;9652;49.014;12.052;2022-12-18T13:39:22;99225.00;;;2.20
19040;BMP180;9652;49.014;12.052;2022-12-18T13:41:52;99220.00;;;2.20
19040;BMP180;9652;49.014;12.052;2022-12-18T13:44:31;99138.00;;;2.20
19040;BMP180;9652;49.014;12.052;2022-12-18T13:47:01;99226.00;;;2.20
19040;BMP180;9652;49.014;12.052;2022-12-18T13:49:37;99215.00;;;2.20
19040;BMP180;9652;49.014;12.052;2022-12-18T13:52:21;99212.00;;;2.20
19040;BMP180;9652;49.014;12.052;2022-12-18T13:54:52;99220.00;;;2.20
19040;BMP180;9652;49.014;12.052;2022-12-18T13:57:28;99188.00;;;2.20
19040;BMP180;9652;49.014;12.052;2022-12-18T13:59:56;99182.00;;;2.10
19040;BMP180;9652;49.014;12.052;2022-12-18T14:02:26;99208.00;;;2.10
19040;BMP180;9652;49.014;12.052;2022-12-18T14:04:54;99190.00;;;1.70
19040;BMP180;9652;49.014;12.052;2022-12-18T14:07:25;99211.00;;;2.00
19040;BMP180;9652;49.014;12.052;2022-12-18T14:09:55;99205.00;;;2.00
19040;BMP180;9652;49.014;12.052;2022-12-18T14:12:25;99192.00;;;2.00
19040;BMP180;9652;49.014;12.052;2022-12-18T14:15:25;99204.00;;;1.90
19040;BMP180;9652;49.014;12.052;2022-12-18T14:17:58;99200.00;;;1.90
19040;BMP180;9652;49.014;12.052;2022-12-18T14:20:28;99204.00;;;1.90
19040;BMP180;9652;49.014;12.052;2022-12-18T14:22:58;99211.00;;;1.80
19040;BMP180;9652;49.014;12.052;2022-12-18T14:25:28;99204.00;;;1.70
19040;BMP180;9652;49.014;12.052;2022-12-18T14:28:14;99202.00;;;1.70
19040;BMP180;9652;49.014;12.052;2022-12-18T14:30:44;99207.00;;;1.70
19040;BMP180;9652;49.014;12.052;2022-12-18T14:33:14;99200.00;;;1.60
19040;BMP180;9652;49.014;12.052;2022-12-18T14:35:52;99210.00;;;1.50
19040;BMP180;9652;49.014;12.052;2022-12-18T14:38:26;99212.00;;;1.50
19040;BMP180;9652;49.014;12.052;2022-12-18T14:40:56;99198.00;;;1.40
19040;BMP180;9652;49.014;12.052;2022-12-18T14:43:24;99197.00;;;1.30
19040;BMP180;9652;49.014;12.052;2022-12-18T14:45:52;99199.00;;;1.30
19040;BMP180;9652;49.014;12.052;2022-12-18T14:48:22;99171.00;;;1.20
19040;BMP180;9652;49.014;12.052;2022-12-18T14:51:00;99178.00;;;1.10
19040;BMP180;9652;49.014;12.052;2022-12-18T14:53:39;99193.00;;;1.10
19040;BMP180;9652;49.014;12.052;2022-12-18T14:56:20;99196.00;;;1.00